sensor_id;sensor_type;location;lat;lon;timestamp;P1;durP1;ratioP1;P2;durP2;ratioP2
17784;SDS011;9016;53.582;10.062;2022-11-15T00:01:14;31.13;;;26.40;;
17784;SDS011;9016;53.582;10.062;2022-11-15T00:03:44;33.40;;;27.77;;
17784;SDS011;9016;53.582;10.062;2022-11-15T00:06:12;34.43;;;26.67;;
17784;SDS011;9016;53.582;10.062;2022-11-15T00:08:40;35.67;;;29.00;;
17784;SDS011;9016;53.582;10.062;2022-11-15T00:11:09;32.17;;;26.80;;
17784;SDS011;9016;53.582;10.062;2022-11-15T00:13:38;33.30;;;27.33;;
17784;SDS011;9016;53.582;10.062;2022-11-15T00:16:08;35.37;;;27.60;;
17784;SDS011;9016;53.582;10.062;2022-11-15T00:18:37;33.13;;;26.70;;
17784;SDS011;9016;53.582;10.062;2022-11-15T00:21:06;34.97;;;27.97;;
17784;SDS011;9016;53.582;10.062;2022-11-15T00:23:35;34.57;;;27.60;;
17784;SDS011;9016;53.582;10.062;2022-11-15T00:26:03;35.00;;;28.00;;
17784;SDS011;9016;53.582;10.062;2022-11-15T00:28:31;31.90;;;26.70;;
17784;SDS011;9016;53.582;10.062;2022-11-15T00:31:00;33.03;;;27.37;;
17784;SDS011;9016;53.582;10.062;2022-11-15T00:33:30;32.90;;;26.87;;
17784;SDS011;9016;53.582;10.062;2022-11-15T00:35:59;33.77;;;27.03;;
17784;SDS011;9016;53.582;10.062;2022-11-15T00:38:30;32.00;;;26.00;;
17784;SDS011;9016;53.582;10.062;2022-11-15T00:40:59;34.07;;;27.37;;
17784;SDS011;9016;53.582;10.062;2022-11-15T00:43:34;32.33;;;27.10;;
17784;SDS011;9016;53.582;10.062;2022-11-15T00:46:02;29.63;;;25.73;;
17784;SDS011;9016;53.582;10.062;2022-11-15T00:48:31;29.27;;;24.53;;
17784;SDS011;9016;53.582;10.062;2022-11-15T00:50:59;32.23;;;26.23;;
17784;SDS011;9016;53.582;10.062;2022-11-15T00:53:27;32.63;;;26.23;;
17784;SDS011;9016;53.582;10.062;2022-11-15T00:55:56;32.47;;;26.60;;
17784;SDS011;9016;53.582;10.062;2022-11-15T00:58:23;30.47;;;24.77;;
17784;SDS011;9016;53.582;10.062;2022-11-15T01:00:51;29.67;;;25.43;;
17784;SDS011;9016;53.582;10.062;2022-11-15T01:03:19;28.50;;;24.17;;
17784;SDS011;9016;53.582;10.062;2022-11-15T01:05:49;32.73;;;27.23;;
17784;SDS011;9016;53.582;10.062;2022-11-15T01:08:17;28.47;;;24.93;;
17784;SDS011;9016;53.582;10.062;2022-11-15T01:10:44;28.20;;;24.47;;
17784;SDS011;9016;53.582;10.062;2022-11-15T01:13:12;27.90;;;24.37;;
17784;SDS011;9016;53.582;10.062;2022-11-15T01:15:40;28.00;;;24.80;;
17784;SDS011;9016;53.582;10.062;2022-11-15T01:18:09;27.20;;;23.60;;
17784;SDS011;9016;53.582;10.062;2022-11-15T01:20:38;28.93;;;24.60;;
17784;SDS011;9016;53.582;10.062;2022-11-15T01:23:08;28.93;;;24.27;;
17784;SDS011;9016;53.582;10.062;2022-11-15T01:25:37;28.37;;;24.80;;
17784;SDS011;9016;53.582;10.062;2022-11-15T01:28:04;28.37;;;24.43;;
17784;SDS011;9016;53.582;10.062;2022-11-15T01:30:32;28.27;;;23.77;;
17784;SDS011;9016;53.582;10.062;2022-11-15T01:33:00;31.57;;;25.33;;
17784;SDS011;9016;53.582;10.062;2022-11-15T01:35:28;31.33;;;24.60;;
17784;SDS011;9016;53.582;10.062;2022-11-15T01:37:56;27.63;;;23.00;;
17784;SDS011;9016;53.582;10.062;2022-11-15T01:40:25;28.53;;;23.50;;
17784;SDS011;9016;53.582;10.062;2022-11-15T01:42:53;28.40;;;23.30;;
17784;SDS011;9016;53.582;10.062;2022-11-15T01:45:21;25.97;;;22.90;;
17784;SDS011;9016;53.582;10.062;2022-11-15T01:47:50;28.63;;;23.60;;
17784;SDS011;9016;53.582;10.062;2022-11-15T01:50:24;28.07;;;24.43;;
17784;SDS011;9016;53.582;10.062;2022-11-15T01:52:55;26.63;;;22.90;;
17784;SDS011;9016;53.582;10.062;2022-11-15T01:55:25;26.37;;;22.50;;
17784;SDS011;9016;53.582;10.062;2022-11-15T01:57:55;27.47;;;23.33;;
17784;SDS011;9016;53.582;10.062;2022-11-15T02:00:27;29.57;;;24.13;;
17784;SDS011;9016;53.582;10.062;2022-11-15T02:02:56;28.17;;;24.40;;
17784;SDS011;9016;53.582;10.062;2022-11-15T02:05:25;27.63;;;23.63;;
17784;SDS011;9016;53.582;10.062;2022-11-15T02:07:53;28.17;;;23.70;;
17784;SDS011;9016;53.582;10.062;2022-11-15T02:10:23;26.57;;;22.87;;
17784;SDS011;9016;53.582;10.062;2022-11-15T02:12:53;27.63;;;22.83;;
17784;SDS011;9016;53.582;10.062;2022-11-15T02:15:24;27.10;;;21.97;;
17784;SDS011;9016;53.582;10.062;2022-11-15T02:18:00;29.60;;;23.70;;
17784;SDS011;9016;53.582;10.062;2022-11-15T02:20:41;25.87;;;22.37;;
17784;SDS011;9016;53.582;10.062;2022-11-15T02:23:29;29.20;;;23.17;;
17784;SDS011;9016;53.582;10.062;2022-11-15T02:26:22;29.60;;;23.40;;
17784;SDS011;9016;53.582;10.062;2022-11-15T02:29:08;30.30;;;24.10;;
17784;SDS011;9016;53.582;10.062;2022-11-15T02:31:43;28.13;;;23.20;;
17784;SDS011;9016;53.582;10.062;2022-11-15T02:34:17;26.43;;;22.60;;
17784;SDS011;9016;53.582;10.062;2022-11-15T02:36:54;26.40;;;22.53;;
17784;SDS011;9016;53.582;10.062;2022-11-15T02:39:32;26.00;;;22.07;;
17784;SDS011;9016;53.582;10.062;2022-11-15T02:42:06;26.20;;;22.13;;
17784;SDS011;9016;53.582;10.062;2022-11-15T02:44:58;24.83;;;22.00;;
17784;SDS011;9016;53.582;10.062;2022-11-15T02:47:35;25.43;;;21.93;;
17784;SDS011;9016;53.582;10.062;2022-11-15T02:50:10;27.43;;;22.40;;
17784;SDS011;9016;53.582;10.062;2022-11-15T02:52:40;24.37;;;21.30;;
17784;SDS011;9016;53.582;10.062;2022-11-15T02:55:28;24.17;;;21.23;;
17784;SDS011;9016;53.582;10.062;2022-11-15T02:58:02;24.87;;;21.60;;
17784;SDS011;9016;53.582;10.062;2022-11-15T03:00:44;24.77;;;20.70;;
17784;SDS011;9016;53.582;10.062;2022-11-15T03:03:28;24.50;;;21.47;;
17784;SDS011;9016;53.582;10.062;2022-11-15T03:06:09;24.13;;;20.03;;
17784;SDS011;9016;53.582;10.062;2022-11-15T03:08:50;25.10;;;21.80;;
17784;SDS011;9016;53.582;10.062;2022-11-15T03:11:26;24.03;;;20.90;;
17784;SDS011;9016;53.582;10.062;2022-11-15T03:14:01;25.77;;;20.57;;
17784;SDS011;9016;53.582;10.062;2022-11-15T03:16:38;23.17;;;20.00;;
17784;SDS011;9016;53.582;10.062;2022-11-15T03:19:16;23.20;;;20.70;;
17784;SDS011;9016;53.582;10.062;2022-11-15T03:21:49;25.33;;;21.67;;
17784;SDS011;9016;53.582;10.062;2022-11-15T03:24:19;24.40;;;20.17;;
17784;SDS011;9016;53.582;10.062;2022-11-15T03:26:51;23.73;;;21.23;;
17784;SDS011;9016;53.582;10.062;2022-11-15T03:29:24;23.63;;;20.70;;
17784;SDS011;9016;53.582;10.062;2022-11-15T03:31:56;27.43;;;21.20;;
17784;SDS011;9016;53.582;10.062;2022-11-15T03:34:31;25.07;;;21.40;;
17784;SDS011;9016;53.582;10.062;2022-11-15T03:37:04;24.87;;;21.60;;
17784;SDS011;9016;53.582;10.062;2022-11-15T03:39:33;24.33;;;20.40;;
17784;SDS011;9016;53.582;10.062;2022-11-15T03:42:04;22.43;;;19.60;;
17784;SDS011;9016;53.582;10.062;2022-11-15T03:44:42;23.80;;;20.00;;
17784;SDS011;9016;53.582;10.062;2022-11-15T03:47:16;22.70;;;19.60;;
17784;SDS011;9016;53.582;10.062;2022-11-15T03:49:51;24.90;;;20.60;;
17784;SDS011;9016;53.582;10.062;2022-11-15T03:52:23;22.67;;;20.07;;
17784;SDS011;9016;53.582;10.062;2022-11-15T03:54:52;22.90;;;19.33;;
17784;SDS011;9016;53.582;10.062;2022-11-15T03:57:21;21.03;;;18.67;;
17784;SDS011;9016;53.582;10.062;2022-11-15T03:59:49;21.20;;;18.87;;
17784;SDS011;9016;53.582;10.062;2022-11-15T04:02:17;22.97;;;19.57;;
17784;SDS011;9016;53.582;10.062;2022-11-15T04:04:45;20.67;;;17.80;;
17784;SDS011;9016;53.582;10.062;2022-11-15T04:07:15;21.67;;;18.70;;
17784;SDS011;9016;53.582;10.062;2022-11-15T04:09:43;20.00;;;17.83;;
17784;SDS011;9016;53.582;10.062;2022-11-15T04:12:29;21.20;;;17.33;;
17784;SDS011;9016;53.582;10.062;2022-11-15T04:15:01;20.43;;;17.17;;
17784;SDS011;9016;53.582;10.062;2022-11-15T04:17:38;19.90;;;17.50;;
17784;SDS011;9016;53.582;10.062;2022-11-15T04:20:08;22.47;;;18.67;;
17784;SDS011;9016;53.582;10.062;2022-11-15T04:22:58;21.53;;;18.23;;
17784;SDS011;9016;53.582;10.062;2022-11-15T04:25:51;22.47;;;17.87;;
17784;SDS011;9016;53.582;10.062;2022-11-15T04:28:21;21.83;;;18.20;;
17784;SDS011;9016;53.582;10.062;2022-11-15T04:30:49;23.43;;;18.50;;
17784;SDS011;9016;53.582;10.062;2022-11-15T04:33:17;20.90;;;18.20;;
17784;SDS011;9016;53.582;10.062;2022-11-15T04:35:45;19.67;;;17.23;;
17784;SDS011;9016;53.582;10.062;2022-11-15T04:38:35;18.83;;;16.83;;
17784;SDS011;9016;53.582;10.062;2022-11-15T04:41:03;18.07;;;16.17;;
17784;SDS011;9016;53.582;10.062;2022-11-15T04:43:31;20.73;;;18.33;;
17784;SDS011;9016;53.582;10.062;2022-11-15T04:46:00;19.50;;;17.43;;
17784;SDS011;9016;53.582;10.062;2022-11-15T04:48:28;20.83;;;16.93;;
17784;SDS011;9016;53.582;10.062;2022-11-15T04:50:56;20.57;;;17.87;;
17784;SDS011;9016;53.582;10.062;2022-11-15T04:53:24;20.17;;;17.97;;
17784;SDS011;9016;53.582;10.062;2022-11-15T04:55:53;21.83;;;18.47;;
17784;SDS011;9016;53.582;10.062;2022-11-15T04:58:21;20.90;;;18.53;;
17784;SDS011;9016;53.582;10.062;2022-11-15T05:00:49;22.27;;;18.47;;
17784;SDS011;9016;53.582;10.062;2022-11-15T05:03:17;22.60;;;18.53;;
17784;SDS011;9016;53.582;10.062;2022-11-15T05:06:02;19.63;;;17.07;;
17784;SDS011;9016;53.582;10.062;2022-11-15T05:08:30;21.43;;;17.97;;
17784;SDS011;9016;53.582;10.062;2022-11-15T05:10:59;22.37;;;18.20;;
17784;SDS011;9016;53.582;10.062;2022-11-15T05:13:27;19.33;;;17.03;;
17784;SDS011;9016;53.582;10.062;2022-11-15T05:15:56;20.97;;;17.60;;
17784;SDS011;9016;53.582;10.062;2022-11-15T05:18:24;20.73;;;17.70;;
17784;SDS011;9016;53.582;10.062;2022-11-15T05:20:52;20.23;;;17.80;;
17784;SDS011;9016;53.582;10.062;2022-11-15T05:23:21;20.50;;;16.10;;
17784;SDS011;9016;53.582;10.062;2022-11-15T05:25:49;19.63;;;16.10;;
17784;SDS011;9016;53.582;10.062;2022-11-15T05:28:18;19.90;;;17.47;;
17784;SDS011;9016;53.582;10.062;2022-11-15T05:30:46;20.30;;;18.00;;
17784;SDS011;9016;53.582;10.062;2022-11-15T05:33:14;19.03;;;16.97;;
17784;SDS011;9016;53.582;10.062;2022-11-15T05:35:42;19.87;;;17.27;;
17784;SDS011;9016;53.582;10.062;2022-11-15T05:38:16;19.87;;;17.47;;
17784;SDS011;9016;53.582;10.062;2022-11-15T05:40:44;21.67;;;17.47;;
17784;SDS011;9016;53.582;10.062;2022-11-15T05:43:12;18.73;;;16.73;;
17784;SDS011;9016;53.582;10.062;2022-11-15T05:45:42;19.43;;;17.13;;
17784;SDS011;9016;53.582;10.062;2022-11-15T05:48:10;18.70;;;16.17;;
17784;SDS011;9016;53.582;10.062;2022-11-15T05:50:38;22.20;;;18.20;;
17784;SDS011;9016;53.582;10.062;2022-11-15T05:53:11;19.53;;;16.30;;
17784;SDS011;9016;53.582;10.062;2022-11-15T05:55:40;21.60;;;17.57;;
17784;SDS011;9016;53.582;10.062;2022-11-15T05:58:08;21.77;;;17.67;;
17784;SDS011;9016;53.582;10.062;2022-11-15T06:00:37;21.73;;;18.40;;
17784;SDS011;9016;53.582;10.062;2022-11-15T06:03:06;21.93;;;18.07;;
17784;SDS011;9016;53.582;10.062;2022-11-15T06:05:34;20.87;;;17.10;;
17784;SDS011;9016;53.582;10.062;2022-11-15T06:08:04;20.80;;;18.10;;
17784;SDS011;9016;53.582;10.062;2022-11-15T06:10:32;20.20;;;17.67;;
17784;SDS011;9016;53.582;10.062;2022-11-15T06:13:03;18.53;;;16.50;;
17784;SDS011;9016;53.582;10.062;2022-11-15T06:15:32;22.33;;;17.53;;
17784;SDS011;9016;53.582;10.062;2022-11-15T06:18:01;22.43;;;18.40;;
17784;SDS011;9016;53.582;10.062;2022-11-15T06:20:33;19.00;;;16.63;;
17784;SDS011;9016;53.582;10.062;2022-11-15T06:23:01;21.80;;;17.93;;
17784;SDS011;9016;53.582;10.062;2022-11-15T06:25:31;19.90;;;15.97;;
17784;SDS011;9016;53.582;10.062;2022-11-15T06:27:59;20.50;;;17.20;;
17784;SDS011;9016;53.582;10.062;2022-11-15T06:30:27;21.00;;;17.17;;
17784;SDS011;9016;53.582;10.062;2022-11-15T06:32:58;19.67;;;17.23;;
17784;SDS011;9016;53.582;10.062;2022-11-15T06:35:27;20.93;;;17.60;;
17784;SDS011;9016;53.582;10.062;2022-11-15T06:37:59;20.50;;;16.97;;
17784;SDS011;9016;53.582;10.062;2022-11-15T06:40:30;18.80;;;16.30;;
17784;SDS011;9016;53.582;10.062;2022-11-15T06:43:00;20.80;;;16.87;;
17784;SDS011;9016;53.582;10.062;2022-11-15T06:45:29;21.27;;;17.17;;
17784;SDS011;9016;53.582;10.062;2022-11-15T06:47:58;19.03;;;16.60;;
17784;SDS011;9016;53.582;10.062;2022-11-15T06:50:26;21.37;;;18.03;;
17784;SDS011;9016;53.582;10.062;2022-11-15T06:52:54;21.37;;;18.30;;
17784;SDS011;9016;53.582;10.062;2022-11-15T06:55:23;21.43;;;18.73;;
17784;SDS011;9016;53.582;10.062;2022-11-15T06:57:51;22.47;;;18.17;;
17784;SDS011;9016;53.582;10.062;2022-11-15T07:00:21;19.40;;;17.33;;
17784;SDS011;9016;53.582;10.062;2022-11-15T07:02:49;21.73;;;18.67;;
17784;SDS011;9016;53.582;10.062;2022-11-15T07:05:17;18.87;;;16.87;;
17784;SDS011;9016;53.582;10.062;2022-11-15T07:07:50;25.73;;;19.13;;
17784;SDS011;9016;53.582;10.062;2022-11-15T07:10:19;23.47;;;19.33;;
17784;SDS011;9016;53.582;10.062;2022-11-15T07:12:48;22.07;;;19.27;;
17784;SDS011;9016;53.582;10.062;2022-11-15T07:15:16;21.87;;;18.77;;
17784;SDS011;9016;53.582;10.062;2022-11-15T07:17:45;24.03;;;18.27;;
17784;SDS011;9016;53.582;10.062;2022-11-15T07:20:13;20.63;;;17.67;;
17784;SDS011;9016;53.582;10.062;2022-11-15T07:22:42;21.23;;;18.20;;
17784;SDS011;9016;53.582;10.062;2022-11-15T07:25:11;21.00;;;17.60;;
17784;SDS011;9016;53.582;10.062;2022-11-15T07:27:40;20.30;;;17.90;;
17784;SDS011;9016;53.582;10.062;2022-11-15T07:30:11;26.10;;;20.30;;
17784;SDS011;9016;53.582;10.062;2022-11-15T07:32:41;21.37;;;18.57;;
17784;SDS011;9016;53.582;10.062;2022-11-15T07:35:09;23.87;;;18.70;;
17784;SDS011;9016;53.582;10.062;2022-11-15T07:37:37;21.93;;;18.93;;
17784;SDS011;9016;53.582;10.062;2022-11-15T07:40:08;21.53;;;18.73;;
17784;SDS011;9016;53.582;10.062;2022-11-15T07:42:37;23.00;;;19.43;;
17784;SDS011;9016;53.582;10.062;2022-11-15T07:45:22;22.67;;;18.83;;
17784;SDS011;9016;53.582;10.062;2022-11-15T07:47:52;21.53;;;18.47;;
17784;SDS011;9016;53.582;10.062;2022-11-15T07:50:22;20.17;;;17.63;;
17784;SDS011;9016;53.582;10.062;2022-11-15T07:52:54;23.43;;;18.97;;
17784;SDS011;9016;53.582;10.062;2022-11-15T07:55:23;21.40;;;17.70;;
17784;SDS011;9016;53.582;10.062;2022-11-15T07:57:51;21.27;;;18.23;;
17784;SDS011;9016;53.582;10.062;2022-11-15T08:00:19;25.70;;;18.03;;
17784;SDS011;9016;53.582;10.062;2022-11-15T08:02:49;22.47;;;18.87;;
17784;SDS011;9016;53.582;10.062;2022-11-15T08:05:17;20.00;;;17.90;;
17784;SDS011;9016;53.582;10.062;2022-11-15T08:07:45;21.53;;;18.13;;
17784;SDS011;9016;53.582;10.062;2022-11-15T08:10:13;25.87;;;22.30;;
17784;SDS011;9016;53.582;10.062;2022-11-15T08:12:43;21.03;;;18.73;;
17784;SDS011;9016;53.582;10.062;2022-11-15T08:15:11;22.33;;;19.40;;
17784;SDS011;9016;53.582;10.062;2022-11-15T08:17:39;23.47;;;18.20;;
17784;SDS011;9016;53.582;10.062;2022-11-15T08:20:09;22.43;;;19.00;;
17784;SDS011;9016;53.582;10.062;2022-11-15T08:22:38;21.13;;;17.80;;
17784;SDS011;9016;53.582;10.062;2022-11-15T08:25:06;19.83;;;17.10;;
17784;SDS011;9016;53.582;10.062;2022-11-15T08:27:34;21.93;;;17.50;;
17784;SDS011;9016;53.582;10.062;2022-11-15T08:30:02;24.60;;;19.23;;
17784;SDS011;9016;53.582;10.062;2022-11-15T08:32:31;20.47;;;18.30;;
17784;SDS011;9016;53.582;10.062;2022-11-15T08:34:59;22.23;;;18.07;;
17784;SDS011;9016;53.582;10.062;2022-11-15T08:37:29;20.70;;;18.20;;
17784;SDS011;9016;53.582;10.062;2022-11-15T08:39:59;20.77;;;18.00;;
17784;SDS011;9016;53.582;10.062;2022-11-15T08:42:28;21.33;;;18.27;;
17784;SDS011;9016;53.582;10.062;2022-11-15T08:44:56;19.77;;;17.60;;
17784;SDS011;9016;53.582;10.062;2022-11-15T08:47:24;24.63;;;18.90;;
17784;SDS011;9016;53.582;10.062;2022-11-15T08:49:54;21.90;;;19.17;;
17784;SDS011;9016;53.582;10.062;2022-11-15T08:52:22;20.00;;;18.00;;
17784;SDS011;9016;53.582;10.062;2022-11-15T08:54:51;20.27;;;17.63;;
17784;SDS011;9016;53.582;10.062;2022-11-15T08:57:19;23.07;;;18.17;;
17784;SDS011;9016;53.582;10.062;2022-11-15T08:59:47;20.27;;;18.13;;
17784;SDS011;9016;53.582;10.062;2022-11-15T09:02:15;22.20;;;17.33;;
17784;SDS011;9016;53.582;10.062;2022-11-15T09:04:43;19.57;;;16.80;;
17784;SDS011;9016;53.582;10.062;2022-11-15T09:07:12;20.33;;;17.63;;
17784;SDS011;9016;53.582;10.062;2022-11-15T09:09:41;20.53;;;16.37;;
17784;SDS011;9016;53.582;10.062;2022-11-15T09:12:10;18.03;;;16.10;;
17784;SDS011;9016;53.582;10.062;2022-11-15T09:14:38;21.10;;;17.17;;
17784;SDS011;9016;53.582;10.062;2022-11-15T09:17:06;20.77;;;17.47;;
17784;SDS011;9016;53.582;10.062;2022-11-15T09:19:35;18.63;;;16.37;;
17784;SDS011;9016;53.582;10.062;2022-11-15T09:22:05;19.10;;;16.50;;
17784;SDS011;9016;53.582;10.062;2022-11-15T09:24:33;19.20;;;16.43;;
17784;SDS011;9016;53.582;10.062;2022-11-15T09:27:01;17.37;;;15.60;;
17784;SDS011;9016;53.582;10.062;2022-11-15T09:29:31;17.67;;;15.77;;
17784;SDS011;9016;53.582;10.062;2022-11-15T09:31:59;18.40;;;16.40;;
17784;SDS011;9016;53.582;10.062;2022-11-15T09:34:26;18.53;;;16.53;;
17784;SDS011;9016;53.582;10.062;2022-11-15T09:36:54;19.93;;;15.83;;
17784;SDS011;9016;53.582;10.062;2022-11-15T09:39:22;21.73;;;17.60;;
17784;SDS011;9016;53.582;10.062;2022-11-15T09:41:52;19.53;;;16.97;;
17784;SDS011;9016;53.582;10.062;2022-11-15T09:44:41;20.03;;;16.47;;
17784;SDS011;9016;53.582;10.062;2022-11-15T09:47:31;19.77;;;16.57;;
17784;SDS011;9016;53.582;10.062;2022-11-15T09:50:22;18.90;;;16.33;;
17784;SDS011;9016;53.582;10.062;2022-11-15T09:52:59;18.97;;;16.10;;
17784;SDS011;9016;53.582;10.062;2022-11-15T09:55:29;20.93;;;15.90;;
17784;SDS011;9016;53.582;10.062;2022-11-15T09:58:05;21.53;;;17.17;;
17784;SDS011;9016;53.582;10.062;2022-11-15T10:00:44;18.40;;;15.83;;
17784;SDS011;9016;53.582;10.062;2022-11-15T10:03:20;20.40;;;16.63;;
17784;SDS011;9016;53.582;10.062;2022-11-15T10:05:55;20.00;;;15.97;;
17784;SDS011;9016;53.582;10.062;2022-11-15T10:08:31;19.27;;;16.20;;
17784;SDS011;9016;53.582;10.062;2022-11-15T10:11:06;19.47;;;16.13;;
17784;SDS011;9016;53.582;10.062;2022-11-15T10:14:04;19.50;;;16.57;;
17784;SDS011;9016;53.582;10.062;2022-11-15T10:16:49;18.67;;;16.67;;
17784;SDS011;9016;53.582;10.062;2022-11-15T10:19:31;17.80;;;14.47;;
17784;SDS011;9016;53.582;10.062;2022-11-15T10:22:12;18.27;;;15.60;;
17784;SDS011;9016;53.582;10.062;2022-11-15T10:24:49;16.30;;;14.57;;
17784;SDS011;9016;53.582;10.062;2022-11-15T10:27:19;19.57;;;15.43;;
17784;SDS011;9016;53.582;10.062;2022-11-15T10:29:48;16.67;;;14.97;;
17784;SDS011;9016;53.582;10.062;2022-11-15T10:32:19;16.33;;;14.63;;
17784;SDS011;9016;53.582;10.062;2022-11-15T10:34:49;15.03;;;13.47;;
17784;SDS011;9016;53.582;10.062;2022-11-15T10:37:26;17.00;;;14.27;;
17784;SDS011;9016;53.582;10.062;2022-11-15T10:40:02;14.83;;;13.33;;
17784;SDS011;9016;53.582;10.062;2022-11-15T10:42:32;17.47;;;13.33;;
17784;SDS011;9016;53.582;10.062;2022-11-15T10:45:00;14.63;;;13.13;;
17784;SDS011;9016;53.582;10.062;2022-11-15T10:47:29;14.70;;;12.67;;
17784;SDS011;9016;53.582;10.062;2022-11-15T10:50:06;14.73;;;12.63;;
17784;SDS011;9016;53.582;10.062;2022-11-15T10:52:52;15.77;;;12.40;;
17784;SDS011;9016;53.582;10.062;2022-11-15T10:55:24;17.80;;;12.70;;
17784;SDS011;9016;53.582;10.062;2022-11-15T10:57:55;13.40;;;11.53;;
17784;SDS011;9016;53.582;10.062;2022-11-15T11:00:30;14.00;;;12.20;;
17784;SDS011;9016;53.582;10.062;2022-11-15T11:03:08;14.10;;;11.87;;
17784;SDS011;9016;53.582;10.062;2022-11-15T11:06:06;14.20;;;11.20;;
17784;SDS011;9016;53.582;10.062;2022-11-15T11:08:36;14.80;;;11.43;;
17784;SDS011;9016;53.582;10.062;2022-11-15T11:11:05;13.17;;;11.33;;
17784;SDS011;9016;53.582;10.062;2022-11-15T11:13:35;14.90;;;11.17;;
17784;SDS011;9016;53.582;10.062;2022-11-15T11:19:08;11.73;;;9.83;;
17784;SDS011;9016;53.582;10.062;2022-11-15T11:21:54;11.90;;;10.33;;
17784;SDS011;9016;53.582;10.062;2022-11-15T11:24:31;12.57;;;10.60;;
17784;SDS011;9016;53.582;10.062;2022-11-15T11:27:08;11.83;;;10.07;;
17784;SDS011;9016;53.582;10.062;2022-11-15T11:29:49;14.60;;;11.20;;
17784;SDS011;9016;53.582;10.062;2022-11-15T11:32:33;11.90;;;10.50;;
17784;SDS011;9016;53.582;10.062;2022-11-15T11:35:17;12.87;;;10.70;;
17784;SDS011;9016;53.582;10.062;2022-11-15T11:37:51;11.83;;;10.50;;
17784;SDS011;9016;53.582;10.062;2022-11-15T11:40:24;15.93;;;12.83;;
17784;SDS011;9016;53.582;10.062;2022-11-15T11:42:58;14.10;;;11.77;;
17784;SDS011;9016;53.582;10.062;2022-11-15T11:48:41;14.27;;;10.90;;
17784;SDS011;9016;53.582;10.062;2022-11-15T11:51:14;14.83;;;11.77;;
17784;SDS011;9016;53.582;10.062;2022-11-15T11:53:47;15.47;;;11.90;;
17784;SDS011;9016;53.582;10.062;2022-11-15T11:56:22;15.97;;;11.90;;
17784;SDS011;9016;53.582;10.062;2022-11-15T11:58:52;14.83;;;11.30;;
17784;SDS011;9016;53.582;10.062;2022-11-15T12:01:23;12.93;;;10.97;;
17784;SDS011;9016;53.582;10.062;2022-11-15T12:03:54;13.77;;;12.13;;
17784;SDS011;9016;53.582;10.062;2022-11-15T12:06:29;14.13;;;11.70;;
17784;SDS011;9016;53.582;10.062;2022-11-15T12:09:02;13.37;;;11.27;;
17784;SDS011;9016;53.582;10.062;2022-11-15T12:11:41;14.30;;;12.73;;
17784;SDS011;9016;53.582;10.062;2022-11-15T12:14:25;12.83;;;11.10;;
17784;SDS011;9016;53.582;10.062;2022-11-15T12:17:00;12.47;;;10.63;;
17784;SDS011;9016;53.582;10.062;2022-11-15T12:19:28;12.33;;;11.03;;
17784;SDS011;9016;53.582;10.062;2022-11-15T12:22:01;12.90;;;11.33;;
17784;SDS011;9016;53.582;10.062;2022-11-15T12:24:33;12.93;;;10.83;;
17784;SDS011;9016;53.582;10.062;2022-11-15T12:27:08;13.93;;;10.97;;
17784;SDS011;9016;53.582;10.062;2022-11-15T12:29:52;13.57;;;11.73;;
17784;SDS011;9016;53.582;10.062;2022-11-15T12:32:25;12.87;;;11.00;;
17784;SDS011;9016;53.582;10.062;2022-11-15T12:34:56;11.37;;;10.17;;
17784;SDS011;9016;53.582;10.062;2022-11-15T12:40:18;11.17;;;9.97;;
17784;SDS011;9016;53.582;10.062;2022-11-15T12:46:09;11.60;;;10.40;;
17784;SDS011;9016;53.582;10.062;2022-11-15T12:48:46;12.27;;;10.53;;
17784;SDS011;9016;53.582;10.062;2022-11-15T12:51:20;13.90;;;11.13;;
17784;SDS011;9016;53.582;10.062;2022-11-15T12:53:51;10.60;;;9.60;;
17784;SDS011;9016;53.582;10.062;2022-11-15T12:56:22;13.37;;;10.23;;
17784;SDS011;9016;53.582;10.062;2022-11-15T12:58:53;12.00;;;9.93;;
17784;SDS011;9016;53.582;10.062;2022-11-15T13:04:28;13.97;;;10.80;;
17784;SDS011;9016;53.582;10.062;2022-11-15T13:06:59;14.50;;;10.50;;
17784;SDS011;9016;53.582;10.062;2022-11-15T13:21:19;10.73;;;9.63;;
17784;SDS011;9016;53.582;10.062;2022-11-15T13:24:13;13.43;;;10.90;;
17784;SDS011;9016;53.582;10.062;2022-11-15T13:26:45;11.47;;;10.37;;
17784;SDS011;9016;53.582;10.062;2022-11-15T13:29:16;13.57;;;9.80;;
17784;SDS011;9016;53.582;10.062;2022-11-15T13:31:46;14.33;;;9.70;;
17784;SDS011;9016;53.582;10.062;2022-11-15T13:34:17;13.57;;;9.90;;
17784;SDS011;9016;53.582;10.062;2022-11-15T13:37:27;18.27;;;10.67;;
17784;SDS011;9016;53.582;10.062;2022-11-15T13:40:09;13.10;;;10.27;;
17784;SDS011;9016;53.582;10.062;2022-11-15T13:42:46;13.43;;;9.77;;
17784;SDS011;9016;53.582;10.062;2022-11-15T13:45:16;12.40;;;10.30;;
17784;SDS011;9016;53.582;10.062;2022-11-15T13:47:50;12.10;;;10.43;;
17784;SDS011;9016;53.582;10.062;2022-11-15T13:50:20;11.60;;;10.40;;
17784;SDS011;9016;53.582;10.062;2022-11-15T13:52:51;12.63;;;10.60;;
17784;SDS011;9016;53.582;10.062;2022-11-15T13:55:20;11.93;;;9.87;;
17784;SDS011;9016;53.582;10.062;2022-11-15T13:57:52;11.03;;;9.33;;
17784;SDS011;9016;53.582;10.062;2022-11-15T14:00:27;14.87;;;10.77;;
17784;SDS011;9016;53.582;10.062;2022-11-15T14:03:08;11.73;;;10.33;;
17784;SDS011;9016;53.582;10.062;2022-11-15T14:05:45;12.57;;;10.60;;
17784;SDS011;9016;53.582;10.062;2022-11-15T14:08:34;14.33;;;10.67;;
17784;SDS011;9016;53.582;10.062;2022-11-15T14:11:07;12.37;;;10.17;;
17784;SDS011;9016;53.582;10.062;2022-11-15T14:13:38;12.20;;;10.90;;
17784;SDS011;9016;53.582;10.062;2022-11-15T14:16:17;12.13;;;10.83;;
17784;SDS011;9016;53.582;10.062;2022-11-15T14:18:47;12.17;;;10.33;;
17784;SDS011;9016;53.582;10.062;2022-11-15T14:21:17;12.63;;;9.80;;
17784;SDS011;9016;53.582;10.062;2022-11-15T14:23:46;11.30;;;9.87;;
17784;SDS011;9016;53.582;10.062;2022-11-15T14:26:28;11.60;;;10.40;;
17784;SDS011;9016;53.582;10.062;2022-11-15T14:29:09;11.53;;;9.80;;
17784;SDS011;9016;53.582;10.062;2022-11-15T14:31:49;11.70;;;10.13;;
17784;SDS011;9016;53.582;10.062;2022-11-15T14:34:17;11.60;;;10.40;;
17784;SDS011;9016;53.582;10.062;2022-11-15T14:36:47;11.87;;;10.57;;
17784;SDS011;9016;53.582;10.062;2022-11-15T14:39:15;13.57;;;9.93;;
17784;SDS011;9016;53.582;10.062;2022-11-15T14:41:43;13.40;;;10.77;;
17784;SDS011;9016;53.582;10.062;2022-11-15T14:44:12;11.87;;;9.57;;
17784;SDS011;9016;53.582;10.062;2022-11-15T14:46:44;13.27;;;10.67;;
17784;SDS011;9016;53.582;10.062;2022-11-15T14:49:14;11.47;;;9.90;;
17784;SDS011;9016;53.582;10.062;2022-11-15T14:51:42;13.27;;;11.20;;
17784;SDS011;9016;53.582;10.062;2022-11-15T14:54:11;11.33;;;10.13;;
17784;SDS011;9016;53.582;10.062;2022-11-15T14:56:39;12.07;;;9.90;;
17784;SDS011;9016;53.582;10.062;2022-11-15T14:59:08;13.27;;;10.87;;
17784;SDS011;9016;53.582;10.062;2022-11-15T15:01:38;10.60;;;9.40;;
17784;SDS011;9016;53.582;10.062;2022-11-15T15:04:06;12.87;;;10.33;;
17784;SDS011;9016;53.582;10.062;2022-11-15T15:06:34;10.60;;;9.43;;
17784;SDS011;9016;53.582;10.062;2022-11-15T15:09:02;10.83;;;9.60;;
17784;SDS011;9016;53.582;10.062;2022-11-15T15:11:31;13.03;;;10.30;;
17784;SDS011;9016;53.582;10.062;2022-11-15T15:13:59;11.30;;;10.13;;
17784;SDS011;9016;53.582;10.062;2022-11-15T15:16:27;11.77;;;9.57;;
17784;SDS011;9016;53.582;10.062;2022-11-15T15:18:57;11.00;;;9.63;;